Silver Bay, MN

12:09 AM CDT on July 26, 2014 (GMT -0500)
Grand Marais (KGNA) Elev 607 ft | 47.75 °N, 90.35 °W | Change Station

Current weather conditions updated 13 minutes ago

Partly Cloudy
Partly Cloudy
54 °F
Feels Like 54 °F
N
0
Wind Variable Wind from North
Gusts 1 mph

Today is forecast to be Much Warmer than yesterday. Light rain.

Today
High -- | Low -- °F
--% Chance of Precip.
Yesterday
High -- | Low -- °F
Precip. -- in
5:36 AM 8:46 PM
Waning Crescent, 0% visible
Pressure 29.76 in
Visibility -9999.0 miles
Clouds
Dew Point 53 °F
Humidity 97%
Rainfall 0.03 in
Snow Depth Not available.
UV Not available.
Pollen 3.60 out of 12
Air Quality Not available.
Flu Activity Not available.
METAR KGNA 260456Z AUTO 00000KT 12/12 A2976 RMK AO1 SLP077 T01220117

More Conditions Fewer Conditions

Pressure 29.76 in
Visibility -9999.0 miles
Clouds
Dew Point 53 °F
Humidity 97%
Rainfall 0.03 in
Snow Depth Not available.
UV Not available.
Pollen 3.60 out of 12
Air Quality Not available.
Flu Activity Not available.
METAR KGNA 260456Z AUTO 00000KT 12/12 A2976 RMK AO1 SLP077 T01220117

More Conditions Fewer Conditions

10-Day Weather Forecast

Almanac

Astronomy

Jul. 26, 2014 Rise Set
Actual Time 5:36 AM CDT 8:46 PM CDT
Civil Twilight 4:59 AM CDT 9:22 PM CDT
Nautical Twilight 4:11 AM CDT 10:10 PM CDT
Astronomical Twilight 3:11 AM CDT 11:09 PM CDT
Moon 5:33 AM CDT 8:14 PM CDT
Length of Visible Light 16h 23m
Length of Day
15h 10m
Tomorrow will be 2m 25s shorter.
Waning Crescent, 0% of the Moon is Illuminated
Today
Waning Crescent
Jul 26
New
Aug 3
First Quarter
Aug 10
Full
Aug 17
Last Quarter

Today's Extremes

State Highs State Lows

Community

WunderPhotos

Upload Photos

1,737,521 photos uploaded!

Nearby

Snow Depth

Station Depth Elevation
No new snow has been reported.

Earthquake Activity

City Distance Mag. Time & Date
No recent earthquake activity has been reported nearby.
Minimum magnitude displayed is 2.5.

Coastal Water Temperatures

Place Temperature
No Stations Reporting

Nearby Weather Stations

Station Location Temp. Dew Point Humidity Wind Precip. Elev Updated Type
HADS SILVER BAY , Silver Bay, MN 53 °F - - ESE  at  2 mph 0.00 in / hr 640 ft 10:40 PM CDT MADIS
Silver Creek - Town Rd, Lake County, MN 66.8 °F 65 °F 95% SSW  at  0.0 mph 0.00 in / hr 985 ft 12:09 AM CDT Rapid Fire
Cross River, Schroeder, MN 56.4 °F 55 °F 95% East  at  0.0 mph 0.00 in / hr 725 ft 12:09 AM CDT Rapid Fire
RAWS ISABELLA MN, Isabella, MN 65 °F 64 °F 95% SSW  at  4 mph 0.00 in / hr 1990 ft 11:04 PM CDT MADIS

Show More Stations Show Fewer Stations